createdAt,value
2023-01-19T00:01:41.909Z,21.23
2023-01-19T00:04:09.521Z,19.92
2023-01-19T00:06:37.004Z,19.10
2023-01-19T00:09:04.746Z,19.80
2023-01-19T00:11:32.193Z,20.00
2023-01-19T00:13:59.759Z,19.10
2023-01-19T00:16:27.369Z,19.63
2023-01-19T00:18:55.600Z,21.90
2023-01-19T00:21:23.277Z,21.75
2023-01-19T00:23:52.655Z,19.30
2023-01-19T00:26:22.147Z,22.73
2023-01-19T00:28:50.980Z,21.20
2023-01-19T00:31:20.736Z,20.67
2023-01-19T00:33:49.385Z,20.50
2023-01-19T00:36:17.008Z,20.67
2023-01-19T00:38:44.584Z,21.52
2023-01-19T00:41:12.027Z,20.13
2023-01-19T00:43:39.426Z,20.52
2023-01-19T00:46:07.055Z,20.27
2023-01-19T00:48:34.691Z,18.95
2023-01-19T00:51:02.208Z,19.40
2023-01-19T00:53:32.408Z,21.52
2023-01-19T00:55:59.926Z,21.63
2023-01-19T00:58:27.370Z,23.27
2023-01-19T01:00:57.415Z,22.77
2023-01-19T01:03:27.994Z,22.50
2023-01-19T01:05:55.759Z,18.43
2023-01-19T01:08:23.300Z,21.48
2023-01-19T01:10:51.883Z,21.20
2023-01-19T01:13:21.093Z,22.52
2023-01-19T01:15:54.192Z,21.02
2023-01-19T01:18:22.182Z,19.15
2023-01-19T01:20:49.786Z,20.48
2023-01-19T01:23:22.645Z,22.55
2023-01-19T01:25:50.102Z,22.92
2023-01-19T01:28:17.551Z,21.77
2023-01-19T01:30:45.068Z,22.05
2023-01-19T01:33:13.311Z,23.45
2023-01-19T01:35:40.802Z,21.90
2023-01-19T01:38:09.436Z,23.88
2023-01-19T01:40:40.472Z,24.83
2023-01-19T01:43:17.589Z,20.02
2023-01-19T01:45:45.273Z,21.80
2023-01-19T01:48:30.820Z,24.15
2023-01-19T01:51:25.093Z,23.15
2023-01-19T01:54:07.143Z,21.95
2023-01-19T01:56:39.117Z,22.67
2023-01-19T01:59:18.043Z,26.27
2023-01-19T02:02:04.063Z,24.15
2023-01-19T02:04:32.193Z,23.63
2023-01-19T02:07:18.331Z,23.63
2023-01-19T02:10:04.569Z,23.80
2023-01-19T02:12:51.699Z,23.48
2023-01-19T02:15:20.621Z,30.73
2023-01-19T02:17:48.458Z,24.52
2023-01-19T02:20:17.475Z,23.75
2023-01-19T02:22:50.012Z,22.35
2023-01-19T02:25:20.130Z,22.60
2023-01-19T02:27:51.491Z,22.42
2023-01-19T02:30:19.741Z,24.02
2023-01-19T02:32:47.368Z,21.52
2023-01-19T02:35:15.452Z,24.95
2023-01-19T02:37:45.465Z,23.70
2023-01-19T02:40:21.717Z,23.33
2023-01-19T02:42:52.916Z,21.27
2023-01-19T02:45:22.970Z,22.65
2023-01-19T02:47:52.909Z,23.58
2023-01-19T02:50:46.071Z,25.27
2023-01-19T02:53:51.275Z,22.13
2023-01-19T02:56:37.236Z,22.70
2023-01-19T02:59:27.330Z,23.30
2023-01-19T03:02:04.669Z,22.52
2023-01-19T03:04:54.571Z,22.63
2023-01-19T03:08:02.952Z,23.23
2023-01-19T03:10:57.893Z,21.48
2023-01-19T03:13:45.602Z,22.58
2023-01-19T03:16:35.263Z,24.63
2023-01-19T03:19:10.219Z,19.77
2023-01-19T03:21:42.805Z,24.17
2023-01-19T03:24:13.918Z,24.13
2023-01-19T03:26:49.198Z,23.42
2023-01-19T03:29:22.088Z,21.73
2023-01-19T03:31:52.485Z,23.75
2023-01-19T03:34:23.980Z,24.70
2023-01-19T03:37:03.040Z,21.48
2023-01-19T03:39:31.538Z,22.95
2023-01-19T03:42:08.610Z,19.70
2023-01-19T03:44:40.301Z,18.23
2023-01-19T03:49:43.232Z,16.35
2023-01-19T03:52:11.436Z,16.27
2023-01-19T03:54:40.923Z,16.00
2023-01-19T03:57:08.510Z,16.00
2023-01-19T03:59:36.462Z,16.73
2023-01-19T04:02:04.046Z,17.23
2023-01-19T04:04:31.679Z,14.20
2023-01-19T04:06:59.272Z,15.13
2023-01-19T04:09:27.263Z,16.08
2023-01-19T04:11:57.175Z,15.77
2023-01-19T04:14:24.751Z,14.45
2023-01-19T04:16:52.326Z,14.27
2023-01-19T04:19:19.777Z,13.10
2023-01-19T04:21:51.025Z,14.68
2023-01-19T04:24:18.542Z,14.93
2023-01-19T04:26:46.024Z,14.32
2023-01-19T04:29:14.387Z,14.27
2023-01-19T04:31:41.907Z,14.07
2023-01-19T04:34:10.179Z,15.60
2023-01-19T04:36:37.663Z,14.27
2023-01-19T04:39:05.291Z,14.20
2023-01-19T04:41:32.843Z,14.60
2023-01-19T04:44:00.559Z,13.88
2023-01-19T04:46:28.243Z,13.10
2023-01-19T04:48:55.828Z,12.82
2023-01-19T04:51:23.397Z,12.60
2023-01-19T04:53:50.882Z,11.25
2023-01-19T04:56:18.578Z,10.98
2023-01-19T04:58:46.204Z,9.13
2023-01-19T05:01:13.772Z,9.27
2023-01-19T05:03:41.381Z,8.82
2023-01-19T05:06:09.187Z,8.50
2023-01-19T05:08:36.964Z,8.27
2023-01-19T05:11:05.112Z,7.60
2023-01-19T05:13:33.855Z,7.60
2023-01-19T05:16:04.752Z,7.38
2023-01-19T05:18:36.245Z,7.72
2023-01-19T05:21:04.886Z,6.85
2023-01-19T05:23:33.248Z,7.60
2023-01-19T05:28:56.767Z,6.45
2023-01-19T05:31:27.811Z,6.43
2023-01-19T05:34:01.933Z,7.18
2023-01-19T05:36:40.167Z,6.50
2023-01-19T05:39:13.135Z,7.20
2023-01-19T05:41:42.116Z,6.90
2023-01-19T05:44:16.823Z,6.22
2023-01-19T05:46:44.583Z,7.63
2023-01-19T05:49:12.981Z,7.22
2023-01-19T05:51:45.335Z,6.47
2023-01-19T05:54:15.589Z,7.32
2023-01-19T05:56:43.719Z,6.28
2023-01-19T05:59:13.586Z,5.60
2023-01-19T06:02:08.875Z,6.80
2023-01-19T06:05:56.026Z,6.22
2023-01-19T06:08:06.968Z,7.40
2023-01-19T06:10:37.923Z,7.68
2023-01-19T06:13:12.590Z,9.23
2023-01-19T06:15:40.394Z,7.63
2023-01-19T06:18:08.377Z,12.25
2023-01-19T06:20:36.645Z,8.45
2023-01-19T06:23:10.769Z,10.43
2023-01-19T06:25:39.241Z,10.82
2023-01-19T06:28:10.237Z,10.38
2023-01-19T06:31:24.627Z,10.73
2023-01-19T06:34:14.132Z,12.35
2023-01-19T06:36:41.654Z,12.55
2023-01-19T06:39:10.664Z,11.48
2023-01-19T06:41:39.097Z,13.55
2023-01-19T06:44:06.544Z,12.13
2023-01-19T06:46:36.052Z,14.23
2023-01-19T06:49:03.882Z,13.57
2023-01-19T06:51:32.763Z,13.23
2023-01-19T06:54:00.897Z,14.85
2023-01-19T06:56:28.388Z,15.50
2023-01-19T06:58:56.473Z,18.95
2023-01-19T07:01:24.087Z,18.92
2023-01-19T07:03:51.929Z,17.75
2023-01-19T07:06:19.787Z,18.58
2023-01-19T07:08:47.409Z,20.15
2023-01-19T07:11:25.618Z,19.83
2023-01-19T07:13:58.351Z,19.52
2023-01-19T07:16:26.193Z,18.83
2023-01-19T07:18:53.904Z,22.45
2023-01-19T07:21:22.638Z,20.27
2023-01-19T07:23:54.206Z,18.40
2023-01-19T07:26:24.978Z,20.98
2023-01-19T07:28:52.702Z,23.02
2023-01-19T07:31:20.732Z,22.38
2023-01-19T07:33:48.265Z,24.48
2023-01-19T07:36:15.742Z,25.42
2023-01-19T07:38:43.280Z,26.65
2023-01-19T07:41:11.206Z,28.60
2023-01-19T07:43:38.723Z,29.80
2023-01-19T07:46:08.290Z,27.95
2023-01-19T07:48:36.048Z,29.05
2023-01-19T07:51:10.990Z,27.60
2023-01-19T07:53:40.037Z,29.60
2023-01-19T07:56:08.179Z,33.08
2023-01-19T07:58:35.904Z,35.42
2023-01-19T08:01:13.149Z,34.95
2023-01-19T08:03:40.958Z,33.50
2023-01-19T08:06:22.641Z,35.65
2023-01-19T08:11:18.174Z,37.92
2023-01-19T08:13:45.719Z,39.22
2023-01-19T08:16:13.264Z,34.47
2023-01-19T08:18:40.717Z,38.25
2023-01-19T08:21:08.606Z,35.92
2023-01-19T08:23:37.124Z,39.58
2023-01-19T08:26:31.988Z,35.40
2023-01-19T08:29:04.542Z,37.10
2023-01-19T08:31:32.867Z,41.60
2023-01-19T08:34:00.437Z,39.72
2023-01-19T08:36:28.027Z,39.92
2023-01-19T08:38:55.559Z,36.40
2023-01-19T08:41:23.137Z,35.65
2023-01-19T08:43:50.636Z,43.83
2023-01-19T08:46:21.285Z,42.13
2023-01-19T08:48:49.440Z,41.38
2023-01-19T08:51:18.180Z,41.78
2023-01-19T08:53:46.188Z,38.20
2023-01-19T08:56:14.571Z,40.63
2023-01-19T08:58:46.733Z,39.28
2023-01-19T09:01:18.606Z,40.28
2023-01-19T09:03:47.097Z,45.47
2023-01-19T09:06:18.427Z,37.20
2023-01-19T09:08:49.018Z,38.65
2023-01-19T09:11:17.497Z,39.10
2023-01-19T09:13:45.121Z,37.38
2023-01-19T09:16:15.201Z,36.97
2023-01-19T09:18:43.142Z,32.10
2023-01-19T09:21:10.720Z,33.72
2023-01-19T09:23:38.372Z,33.58
2023-01-19T09:26:06.806Z,28.60
2023-01-19T09:28:35.421Z,34.47
2023-01-19T09:31:08.613Z,30.20
2023-01-19T09:33:36.254Z,29.83
2023-01-19T09:36:04.040Z,33.58
2023-01-19T09:38:32.904Z,35.15
2023-01-19T09:41:01.341Z,37.92
2023-01-19T09:43:35.229Z,43.78
2023-01-19T09:46:15.330Z,43.63
2023-01-19T09:48:49.971Z,43.95
2023-01-19T09:51:23.616Z,51.17
2023-01-19T09:54:05.133Z,49.67
2023-01-19T09:56:33.580Z,53.30
2023-01-19T09:59:15.169Z,60.95
2023-01-19T10:02:31.328Z,54.95
2023-01-19T10:05:40.595Z,54.55
2023-01-19T10:08:31.875Z,53.72
2023-01-19T10:10:59.939Z,50.40
2023-01-19T10:13:48.356Z,55.17
2023-01-19T10:16:56.750Z,54.35
2023-01-19T10:19:32.770Z,54.33
2023-01-19T10:22:35.844Z,58.00
2023-01-19T10:25:13.415Z,58.25
2023-01-19T10:27:41.644Z,60.65
2023-01-19T10:30:18.822Z,61.90
2023-01-19T10:32:46.902Z,69.18
2023-01-19T10:35:23.566Z,64.75
2023-01-19T10:37:58.694Z,67.38
2023-01-19T10:40:47.918Z,63.03
2023-01-19T10:43:44.224Z,71.70
2023-01-19T10:46:23.022Z,62.28
2023-01-19T10:48:54.347Z,66.63
2023-01-19T10:51:22.545Z,57.97
2023-01-19T10:54:04.890Z,50.67
2023-01-19T10:56:38.486Z,55.70
2023-01-19T10:59:27.341Z,56.60
2023-01-19T11:02:12.470Z,53.85
2023-01-19T11:04:42.036Z,51.53
2023-01-19T11:07:27.345Z,52.25
2023-01-19T11:10:22.542Z,50.58
2023-01-19T11:12:58.425Z,53.60
2023-01-19T11:15:34.823Z,45.85
2023-01-19T11:18:05.759Z,46.20
2023-01-19T11:20:49.642Z,49.67
2023-01-19T11:23:26.422Z,44.38
2023-01-19T11:26:01.780Z,42.92
2023-01-19T11:28:44.193Z,50.50
2023-01-19T11:31:15.505Z,40.30
2023-01-19T11:33:58.657Z,43.88
2023-01-19T11:36:35.516Z,41.22
2023-01-19T11:39:28.230Z,37.53
2023-01-19T11:42:02.179Z,31.23
2023-01-19T11:44:39.174Z,37.30
2023-01-19T11:47:18.654Z,39.95
2023-01-19T11:50:02.770Z,37.58
2023-01-19T11:52:46.438Z,36.83
2023-01-19T11:56:04.718Z,33.30
2023-01-19T11:58:42.081Z,32.28
2023-01-19T12:01:24.861Z,35.22
2023-01-19T12:04:10.725Z,34.38
2023-01-19T12:06:48.224Z,28.80
2023-01-19T12:09:49.867Z,31.75
2023-01-19T12:12:38.240Z,33.08
2023-01-19T12:15:30.456Z,26.58
2023-01-19T12:18:02.492Z,25.65
2023-01-19T12:20:48.055Z,32.35
2023-01-19T12:24:01.441Z,25.33
2023-01-19T12:26:43.625Z,25.25
2023-01-19T12:29:15.992Z,24.13
2023-01-19T12:31:44.124Z,30.88
2023-01-19T12:34:31.414Z,24.65
2023-01-19T12:37:06.013Z,26.70
2023-01-19T12:39:35.426Z,21.08
2023-01-19T12:42:14.449Z,27.17
2023-01-19T12:44:44.783Z,26.05
2023-01-19T12:47:15.119Z,28.63
2023-01-19T12:49:55.163Z,27.38
2023-01-19T12:52:29.264Z,21.02
2023-01-19T12:55:01.120Z,22.77
2023-01-19T12:57:49.066Z,23.52
2023-01-19T13:00:22.413Z,25.27
2023-01-19T13:02:55.628Z,22.30
2023-01-19T13:05:32.637Z,23.85
2023-01-19T13:08:06.766Z,21.38
2023-01-19T13:11:05.807Z,30.83
2023-01-19T13:13:45.150Z,19.55
2023-01-19T13:16:18.954Z,19.70
2023-01-19T13:18:47.942Z,24.80
2023-01-19T13:21:39.767Z,19.00
2023-01-19T13:26:49.176Z,18.40
2023-01-19T13:29:36.430Z,22.13
2023-01-19T13:32:18.930Z,19.70
2023-01-19T13:34:54.725Z,21.30
2023-01-19T13:37:28.397Z,24.92
2023-01-19T13:39:57.710Z,21.80
2023-01-19T13:42:39.239Z,25.92
2023-01-19T13:45:25.226Z,18.38
2023-01-19T13:47:58.071Z,19.73
2023-01-19T13:53:01.479Z,20.40
2023-01-19T13:55:31.829Z,17.23
2023-01-19T13:57:59.462Z,22.90
2023-01-19T14:00:30.839Z,18.70
2023-01-19T14:03:21.272Z,22.33
2023-01-19T14:05:54.478Z,17.75
2023-01-19T14:08:25.410Z,19.83
2023-01-19T14:11:02.393Z,22.83
2023-01-19T14:13:40.135Z,20.55
2023-01-19T14:16:17.530Z,19.83
2023-01-19T14:18:45.209Z,21.73
2023-01-19T14:21:15.231Z,22.20
2023-01-19T14:23:53.157Z,20.75
2023-01-19T14:26:50.008Z,23.30
2023-01-19T14:29:35.622Z,20.15
2023-01-19T14:32:21.639Z,21.90
2023-01-19T14:34:54.010Z,21.05
2023-01-19T14:37:29.041Z,23.58
2023-01-19T14:40:04.813Z,27.55
2023-01-19T14:42:38.463Z,23.00
2023-01-19T14:45:21.110Z,23.42
2023-01-19T14:48:04.791Z,24.23
2023-01-19T14:50:42.822Z,23.77
2023-01-19T14:53:25.606Z,24.90
2023-01-19T14:55:59.283Z,25.02
2023-01-19T14:58:31.262Z,25.75
2023-01-19T15:00:59.366Z,24.30
2023-01-19T15:03:44.756Z,28.63
2023-01-19T15:06:17.201Z,27.50
2023-01-19T15:08:46.418Z,26.98
2023-01-19T15:11:33.939Z,27.05
2023-01-19T15:14:02.568Z,27.65
2023-01-19T15:16:34.337Z,28.98
2023-01-19T15:19:02.124Z,30.23
2023-01-19T15:21:29.852Z,29.38
2023-01-19T15:23:58.556Z,30.38
2023-01-19T15:26:27.609Z,29.42
2023-01-19T15:28:56.689Z,29.45
2023-01-19T15:31:26.708Z,32.22
2023-01-19T15:33:54.851Z,30.52
2023-01-19T15:36:24.346Z,31.73
2023-01-19T15:38:51.976Z,28.98
2023-01-19T15:41:26.118Z,35.72
2023-01-19T15:43:54.133Z,33.47
2023-01-19T15:46:23.441Z,32.50
2023-01-19T15:48:52.467Z,34.95
2023-01-19T15:51:25.895Z,29.55
2023-01-19T15:53:55.252Z,33.97
2023-01-19T15:56:29.131Z,35.67
2023-01-19T16:01:32.310Z,28.80
2023-01-19T16:04:04.027Z,33.53
2023-01-19T16:06:32.966Z,37.05
2023-01-19T16:09:01.548Z,33.42
2023-01-19T16:11:35.172Z,33.45
2023-01-19T16:14:02.805Z,32.95
2023-01-19T16:16:30.434Z,33.85
2023-01-19T16:18:59.049Z,29.67
2023-01-19T16:21:27.088Z,32.53
2023-01-19T16:23:55.096Z,34.88
2023-01-19T16:26:34.457Z,33.38
2023-01-19T16:29:11.010Z,32.78
2023-01-19T16:31:42.476Z,35.42
2023-01-19T16:34:10.472Z,32.50
2023-01-19T16:36:41.672Z,32.65
2023-01-19T16:39:14.701Z,32.55
2023-01-19T16:41:44.120Z,33.90
2023-01-19T16:44:13.943Z,36.65
2023-01-19T16:46:45.225Z,38.45
2023-01-19T16:49:20.105Z,33.63
2023-01-19T16:51:49.099Z,39.20
2023-01-19T16:54:25.635Z,37.17
2023-01-19T16:56:55.636Z,38.47
2023-01-19T16:59:24.528Z,36.42
2023-01-19T17:01:52.178Z,33.70
2023-01-19T17:04:22.009Z,33.40
2023-01-19T17:06:52.758Z,36.75
2023-01-19T17:09:20.296Z,35.67
2023-01-19T17:11:48.074Z,35.10
2023-01-19T17:14:21.802Z,37.22
2023-01-19T17:16:50.249Z,33.53
2023-01-19T17:19:20.470Z,32.50
2023-01-19T17:21:49.767Z,35.65
2023-01-19T17:24:18.017Z,38.05
2023-01-19T17:26:48.546Z,36.15
2023-01-19T17:29:17.017Z,35.80
2023-01-19T17:31:45.829Z,34.95
2023-01-19T17:34:13.446Z,40.17
2023-01-19T17:36:41.085Z,36.45
2023-01-19T17:39:14.648Z,37.00
2023-01-19T17:41:42.337Z,42.30
2023-01-19T17:44:10.725Z,40.78
2023-01-19T17:46:39.505Z,44.22
2023-01-19T17:49:10.844Z,38.60
2023-01-19T17:51:38.489Z,38.58
2023-01-19T17:54:06.100Z,43.53
2023-01-19T17:56:37.444Z,37.53
2023-01-19T17:59:07.755Z,42.67
2023-01-19T18:01:39.844Z,44.33
2023-01-19T18:04:09.062Z,38.72
2023-01-19T18:06:38.493Z,47.35
2023-01-19T18:09:07.408Z,54.90
2023-01-19T18:11:35.735Z,43.40
2023-01-19T18:14:03.504Z,43.55
2023-01-19T18:16:32.244Z,46.00
2023-01-19T18:18:59.826Z,43.75
2023-01-19T18:21:28.209Z,43.05
2023-01-19T18:24:05.370Z,43.28
2023-01-19T18:26:34.994Z,42.45
2023-01-19T18:29:02.564Z,47.05
2023-01-19T18:31:30.379Z,47.00
2023-01-19T18:33:58.115Z,43.78
2023-01-19T18:36:26.002Z,44.90
2023-01-19T18:38:53.756Z,45.95
2023-01-19T18:41:21.995Z,40.90
2023-01-19T18:43:50.068Z,45.47
2023-01-19T18:46:18.662Z,51.08
2023-01-19T18:48:46.760Z,46.72
2023-01-19T18:51:16.805Z,46.40
2023-01-19T18:53:45.074Z,47.10
2023-01-19T18:56:15.351Z,48.00
2023-01-19T18:58:44.143Z,47.15
2023-01-19T19:01:25.199Z,51.95
2023-01-19T19:03:55.059Z,51.47
2023-01-19T19:06:27.515Z,51.60
2023-01-19T19:09:00.483Z,53.55
2023-01-19T19:11:28.416Z,62.00
2023-01-19T19:14:01.218Z,60.58
2023-01-19T19:16:36.619Z,48.58
2023-01-19T19:19:08.521Z,53.60
2023-01-19T19:21:36.202Z,49.63
2023-01-19T19:24:04.256Z,58.85
2023-01-19T19:26:31.776Z,52.53
2023-01-19T19:29:01.175Z,56.15
2023-01-19T19:31:30.255Z,54.85
2023-01-19T19:33:59.242Z,51.00
2023-01-19T19:36:28.621Z,51.72
2023-01-19T19:38:56.239Z,57.88
2023-01-19T19:41:27.076Z,53.28
2023-01-19T19:43:56.186Z,65.45
2023-01-19T19:46:24.886Z,56.45
2023-01-19T19:48:54.077Z,57.97
2023-01-19T19:51:26.898Z,55.63
2023-01-19T19:53:58.694Z,50.38
2023-01-19T19:56:29.730Z,62.35
2023-01-19T19:58:59.386Z,58.80
2023-01-19T20:01:32.938Z,68.72
2023-01-19T20:04:10.769Z,68.93
2023-01-19T20:06:44.743Z,55.42
2023-01-19T20:09:14.213Z,56.05
2023-01-19T20:11:44.405Z,63.17
2023-01-19T20:14:14.152Z,58.67
2023-01-19T20:16:43.061Z,61.97
2023-01-19T20:19:12.897Z,60.10
2023-01-19T20:21:42.430Z,65.82
2023-01-19T20:24:18.244Z,53.33
2023-01-19T20:26:56.848Z,57.38
2023-01-19T20:29:24.806Z,57.92
2023-01-19T20:31:57.169Z,65.60
2023-01-19T20:34:33.216Z,56.15
2023-01-19T20:37:02.595Z,56.25
2023-01-19T20:39:33.211Z,62.30
2023-01-19T20:42:02.155Z,56.67
2023-01-19T20:44:31.761Z,71.40
2023-01-19T20:46:59.297Z,62.15
2023-01-19T20:49:26.779Z,59.80
2023-01-19T20:51:54.549Z,60.40
2023-01-19T20:54:27.351Z,69.60
2023-01-19T20:56:55.192Z,55.13
2023-01-19T20:59:23.560Z,62.63
2023-01-19T21:01:51.468Z,60.03
2023-01-19T21:04:19.214Z,60.85
2023-01-19T21:06:46.825Z,62.28
2023-01-19T21:09:14.444Z,61.97
2023-01-19T21:11:41.980Z,62.97
2023-01-19T21:14:09.673Z,57.85
2023-01-19T21:16:37.939Z,57.25
2023-01-19T21:19:05.815Z,62.67
2023-01-19T21:21:33.951Z,66.70
2023-01-19T21:24:04.003Z,69.20
2023-01-19T21:26:33.367Z,61.97
2023-01-19T21:29:03.579Z,68.07
2023-01-19T21:31:32.495Z,55.90
2023-01-19T21:34:00.375Z,60.55
2023-01-19T21:36:27.961Z,59.63
2023-01-19T21:39:00.488Z,69.50
2023-01-19T21:41:30.274Z,61.30
2023-01-19T21:44:00.891Z,56.95
2023-01-19T21:46:30.782Z,61.88
2023-01-19T21:49:05.362Z,54.90
2023-01-19T21:51:36.601Z,54.97
2023-01-19T21:54:06.651Z,58.80
2023-01-19T21:56:35.801Z,58.67
2023-01-19T21:59:04.278Z,60.40
2023-01-19T22:01:33.736Z,56.72
2023-01-19T22:04:01.418Z,57.50
2023-01-19T22:06:29.439Z,59.80
2023-01-19T22:08:58.340Z,55.45
2023-01-19T22:11:27.323Z,52.00
2023-01-19T22:13:56.609Z,60.95
2023-01-19T22:16:24.269Z,59.78
2023-01-19T22:18:56.669Z,62.53
2023-01-19T22:21:34.073Z,63.33
2023-01-19T22:24:05.113Z,61.15
2023-01-19T22:26:34.596Z,65.47
2023-01-19T22:29:04.421Z,62.95
2023-01-19T22:31:32.386Z,66.25
2023-01-19T22:34:00.086Z,58.00
2023-01-19T22:36:31.435Z,68.43
2023-01-19T22:39:10.275Z,69.35
2023-01-19T22:41:47.178Z,67.15
2023-01-19T22:44:20.156Z,66.63
2023-01-19T22:46:50.046Z,69.85
2023-01-19T22:49:18.833Z,63.80
2023-01-19T22:51:46.583Z,69.35
2023-01-19T22:54:14.316Z,70.53
2023-01-19T22:56:42.239Z,62.00
2023-01-19T22:59:09.977Z,66.88
2023-01-19T23:01:42.586Z,66.35
2023-01-19T23:04:16.114Z,65.80
2023-01-19T23:06:46.987Z,68.35
2023-01-19T23:09:15.509Z,69.40
2023-01-19T23:11:50.810Z,73.00
2023-01-19T23:14:22.054Z,75.90
2023-01-19T23:16:50.906Z,68.93
2023-01-19T23:19:19.241Z,74.30
2023-01-19T23:21:49.977Z,75.80
2023-01-19T23:24:17.628Z,76.17
2023-01-19T23:26:45.123Z,78.57
2023-01-19T23:29:15.442Z,74.70
2023-01-19T23:31:47.456Z,75.30
2023-01-19T23:34:15.995Z,67.63
2023-01-19T23:36:44.378Z,67.80
2023-01-19T23:39:18.002Z,71.57
2023-01-19T23:41:46.476Z,73.10
2023-01-19T23:44:14.702Z,64.75
2023-01-19T23:46:43.843Z,66.03
2023-01-19T23:49:12.777Z,69.80
2023-01-19T23:51:41.321Z,70.75
2023-01-19T23:54:08.874Z,64.68
2023-01-19T23:56:38.734Z,72.45
2023-01-19T23:59:11.556Z,70.13
